Time;durP1;ratioP1;P1;durP2;ratioP2;P2;SDS_P1;SDS_P2;PMS_P1;PMS_P2;Temp;Humidity;BMP_temperature;BMP_pressure;BME280_temperature;BME280_humidity;BME280_pressure;Samples;Min_cycle;Max_cycle;Signal;HPM_P1;HPM_P2
2022/12/29 00:02:21;;;;;;;9.48;2.45;;;5.20;99.90;;;;;;5007545;28;20056;-60
2022/12/29 00:04:46;;;;;;;3.90;2.42;;;5.20;99.90;;;;;;5007960;28;21136;-59
2022/12/29 00:07:12;;;;;;;3.90;2.25;;;5.20;99.90;;;;;;5009701;28;20026;-59
2022/12/29 00:09:38;;;;;;;4.28;2.30;;;5.20;99.90;;;;;;5010633;28;20034;-60
2022/12/29 00:12:04;;;;;;;2.95;2.15;;;5.20;99.90;;;;;;5008876;28;20034;-60
2022/12/29 00:17:14;;;;;;;2.80;2.60;;;5.30;99.90;;;;;;5010797;28;20037;-60
2022/12/29 00:36:28;;;;;;;4.03;2.50;;;5.30;99.90;;;;;;5009097;28;20029;-61
2022/12/29 00:44:36;;;;;;;4.05;2.35;;;5.30;99.90;;;;;;5006237;28;20040;-59
2022/12/29 00:47:03;;;;;;;2.60;2.10;;;5.20;99.90;;;;;;5007942;28;20034;-60
2022/12/29 00:49:31;;;;;;;2.97;2.67;;;5.30;99.90;;;;;;5008609;28;20453;-59
2022/12/29 00:52:02;;;;;;;2.45;2.15;;;5.30;99.90;;;;;;5010483;28;20129;-60
2022/12/29 00:54:29;;;;;;;2.72;2.13;;;5.30;99.90;;;;;;5008773;28;20536;-60
2022/12/29 00:56:55;;;;;;;4.45;2.45;;;5.30;99.90;;;;;;5005542;28;20042;-59
2022/12/29 00:59:21;;;;;;;2.97;2.67;;;5.30;99.90;;;;;;5008817;28;20033;-59
2022/12/29 01:01:47;;;;;;;3.45;2.00;;;5.30;99.90;;;;;;5006889;28;20401;-60
2022/12/29 01:04:13;;;;;;;2.55;2.03;;;5.30;99.90;;;;;;5008012;28;20030;-59
2022/12/29 01:06:40;;;;;;;2.58;2.08;;;5.40;99.90;;;;;;5009372;28;20125;-59
2022/12/29 01:11:51;;;;;;;7.10;2.28;;;5.40;99.90;;;;;;5007964;28;20033;-59
2022/12/29 01:14:18;;;;;;;3.67;2.08;;;5.40;99.90;;;;;;5007705;28;20022;-59
2022/12/29 01:16:44;;;;;;;5.90;2.10;;;5.40;99.90;;;;;;5006744;28;20030;-60
2022/12/29 01:19:09;;;;;;;5.10;1.95;;;5.50;99.90;;;;;;5010341;28;20053;-60
2022/12/29 01:21:35;;;;;;;3.40;2.15;;;5.50;99.90;;;;;;5007381;28;20111;-59
2022/12/29 01:24:01;;;;;;;8.48;2.42;;;5.50;99.90;;;;;;5007636;28;20034;-60
2022/12/29 01:26:27;;;;;;;2.78;2.15;;;5.50;99.90;;;;;;5007159;28;20135;-59
2022/12/29 01:28:52;;;;;;;2.88;1.92;;;5.50;99.90;;;;;;5007488;28;20060;-60
2022/12/29 01:31:18;;;;;;;5.03;2.28;;;5.50;99.90;;;;;;5005908;28;20383;-58
2022/12/29 01:33:44;;;;;;;2.10;1.90;;;5.60;99.90;;;;;;5007912;28;20409;-59
2022/12/29 01:36:12;;;;;;;4.38;2.40;;;5.60;99.90;;;;;;4994280;28;20061;-60
2022/12/29 01:38:39;;;;;;;2.75;1.85;;;5.60;99.90;;;;;;5008767;28;20026;-61
2022/12/29 01:41:06;;;;;;;2.20;1.98;;;5.60;99.90;;;;;;5007050;28;20025;-58
2022/12/29 01:43:56;;;;;;;4.43;1.92;;;5.60;99.90;;;;;;5008114;28;20034;-59
2022/12/29 01:46:33;;;;;;;2.17;1.88;;;5.70;99.90;;;;;;5006048;28;20698;-58
2022/12/29 01:49:07;;;;;;;2.10;1.80;;;5.70;99.90;;;;;;5008502;28;20060;-59
2022/12/29 01:51:37;;;;;;;4.68;2.10;;;5.70;99.90;;;;;;5004324;28;20056;-59
2022/12/29 01:54:07;;;;;;;2.80;2.05;;;5.70;99.90;;;;;;5005010;28;20091;-60
2022/12/29 01:56:33;;;;;;;3.70;2.00;;;5.70;99.90;;;;;;5006721;28;20506;-60
2022/12/29 01:59:04;;;;;;;3.05;2.00;;;5.70;99.90;;;;;;5007619;28;20038;-59
2022/12/29 02:01:30;;;;;;;3.05;2.10;;;5.80;99.90;;;;;;5006638;28;20390;-59
2022/12/29 02:03:56;;;;;;;2.90;1.95;;;5.80;99.90;;;;;;5006850;28;20032;-60
2022/12/29 02:06:28;;;;;;;2.58;1.90;;;5.80;99.90;;;;;;5006090;28;20092;-59
2022/12/29 02:08:56;;;;;;;2.17;1.85;;;5.80;99.90;;;;;;4995524;28;20715;-59
2022/12/29 02:11:24;;;;;;;2.63;1.85;;;5.80;99.90;;;;;;5006217;28;20042;-58
2022/12/29 02:13:49;;;;;;;1.60;1.50;;;5.90;99.90;;;;;;5006149;28;20049;-59
2022/12/29 02:16:15;;;;;;;7.50;2.00;;;5.90;99.90;;;;;;5007539;28;20483;-59
2022/12/29 02:18:52;;;;;;;2.53;1.85;;;5.90;99.90;;;;;;5006098;28;20073;-59
2022/12/29 02:21:49;;;;;;;2.83;1.80;;;5.90;99.90;;;;;;5009696;28;20257;-60
2022/12/29 02:24:17;;;;;;;5.13;1.85;;;6.00;99.90;;;;;;5004870;28;20048;-60
2022/12/29 02:26:43;;;;;;;2.72;1.50;;;6.10;99.90;;;;;;5006695;28;20037;-60
2022/12/29 02:29:23;;;;;;;1.98;1.50;;;6.10;99.90;;;;;;5010684;28;20041;-60
2022/12/29 02:31:54;;;;;;;2.80;1.83;;;6.20;99.90;;;;;;5012136;28;20038;-59
2022/12/29 02:34:37;;;;;;;2.30;1.85;;;6.20;99.90;;;;;;5011679;28;20453;-59
2022/12/29 02:37:24;;;;;;;3.72;1.63;;;6.30;99.90;;;;;;5009301;28;20036;-59
2022/12/29 02:40:11;;;;;;;3.78;1.52;;;6.30;99.90;;;;;;5009635;28;20110;-59
2022/12/29 02:43:06;;;;;;;2.70;1.40;;;6.30;99.90;;;;;;5011253;28;20037;-60
2022/12/29 02:45:35;;;;;;;5.10;1.60;;;6.30;99.90;;;;;;4991123;28;20040;-59
2022/12/29 02:48:32;;;;;;;2.67;1.50;;;6.30;99.90;;;;;;5011014;28;20453;-59
2022/12/29 02:51:17;;;;;;;2.53;1.92;;;6.30;99.90;;;;;;5007127;28;20038;-59
2022/12/29 02:56:28;;;;;;;2.53;2.20;;;6.40;99.90;;;;;;5009103;28;20449;-60
2022/12/29 02:58:54;;;;;;;4.45;1.60;;;6.40;99.90;;;;;;5011480;28;20034;-59
2022/12/29 03:05:04;;;;;;;4.82;1.50;;;6.40;99.90;;;;;;5010097;28;20041;-59
2022/12/29 03:07:44;;;;;;;2.25;1.40;;;6.50;99.90;;;;;;5009865;28;20037;-60
2022/12/29 03:10:41;;;;;;;2.38;1.30;;;6.70;99.90;;;;;;5010576;28;20032;-60
2022/12/29 03:16:24;;;;;;;2.28;1.25;;;7.00;99.90;;;;;;5010407;28;20076;-60
2022/12/29 03:18:56;;;;;;;2.90;1.30;;;7.10;99.90;;;;;;5011260;28;20382;-59
2022/12/29 03:24:23;;;;;;;2.13;1.40;;;7.70;99.90;;;;;;5011442;28;20143;-60
2022/12/29 03:26:51;;;;;;;2.22;1.42;;;7.90;99.90;;;;;;5007318;28;20091;-59
2022/12/29 03:29:18;;;;;;;3.58;1.55;;;8.00;99.90;;;;;;5010629;28;20072;-60
2022/12/29 03:31:46;;;;;;;1.10;1.00;;;8.00;99.90;;;;;;5010498;28;20045;-60
2022/12/29 03:34:14;;;;;;;2.08;1.30;;;8.10;99.90;;;;;;5009549;28;20033;-59
2022/12/29 03:36:49;;;;;;;2.13;1.48;;;8.10;99.90;;;;;;5009199;28;20033;-60
2022/12/29 03:39:15;;;;;;;3.50;1.20;;;8.00;99.90;;;;;;5009231;28;20670;-59
2022/12/29 03:41:44;;;;;;;3.25;1.50;;;8.10;99.90;;;;;;5009624;28;20487;-60
2022/12/29 03:44:11;;;;;;;2.40;1.40;;;8.10;99.90;;;;;;5008245;28;20117;-59
2022/12/29 03:46:36;;;;;;;3.55;1.70;;;8.10;99.90;;;;;;5009064;28;20497;-60
2022/12/29 03:49:02;;;;;;;2.10;1.35;;;8.10;99.90;;;;;;5010501;28;20061;-60
2022/12/29 03:51:28;;;;;;;2.13;1.30;;;8.10;99.90;;;;;;5009791;28;20550;-60
2022/12/29 03:53:53;;;;;;;1.90;1.20;;;8.20;99.90;;;;;;5010848;28;20442;-60
2022/12/29 03:56:19;;;;;;;1.98;1.30;;;8.20;99.90;;;;;;5008665;28;20034;-60
2022/12/29 03:58:45;;;;;;;2.30;1.35;;;8.20;99.90;;;;;;5007920;28;20077;-60
2022/12/29 04:01:10;;;;;;;3.22;1.10;;;8.10;99.90;;;;;;5011068;28;20026;-58
2022/12/29 04:03:36;;;;;;;5.00;1.30;;;8.10;99.90;;;;;;5010510;28;20021;-60
2022/12/29 04:06:01;;;;;;;4.05;1.10;;;8.30;99.90;;;;;;5009323;28;20038;-60
2022/12/29 04:08:27;;;;;;;2.60;1.50;;;8.40;99.90;;;;;;5008871;28;20306;-60
2022/12/29 04:10:53;;;;;;;3.28;1.42;;;8.50;99.90;;;;;;5008762;28;20038;-58
2022/12/29 04:13:18;;;;;;;2.17;1.13;;;8.60;99.90;;;;;;5009298;28;20560;-60
2022/12/29 04:15:45;;;;;;;3.35;1.30;;;8.70;99.90;;;;;;5010148;28;20113;-58
2022/12/29 04:18:11;;;;;;;5.65;1.05;;;8.70;99.90;;;;;;4993147;28;20117;-59
2022/12/29 04:23:21;;;;;;;2.33;1.42;;;8.70;99.90;;;;;;5009541;28;20033;-59
2022/12/29 04:25:47;;;;;;;4.43;1.35;;;8.70;99.90;;;;;;5009852;28;20026;-59
2022/12/29 04:28:13;;;;;;;1.52;1.25;;;8.70;99.90;;;;;;5009034;28;20079;-59
2022/12/29 04:30:39;;;;;;;2.42;1.20;;;8.60;99.90;;;;;;5008473;28;20037;-59
2022/12/29 04:33:05;;;;;;;3.35;1.05;;;8.60;99.90;;;;;;5009221;28;20034;-59
2022/12/29 04:35:30;;;;;;;4.43;1.33;;;8.50;99.90;;;;;;5008816;28;20762;-60
2022/12/29 04:37:56;;;;;;;2.40;1.20;;;8.50;99.90;;;;;;5006037;28;20050;-59
2022/12/29 04:40:23;;;;;;;2.85;1.40;;;8.40;99.90;;;;;;5008884;28;20026;-58
2022/12/29 04:42:48;;;;;;;2.38;1.50;;;8.40;99.90;;;;;;5008412;28;20101;-60
2022/12/29 04:45:14;;;;;;;8.30;1.40;;;8.40;99.90;;;;;;5008943;28;20490;-59
2022/12/29 04:47:40;;;;;;;1.58;1.30;;;8.40;99.90;;;;;;5008830;28;20041;-60
2022/12/29 04:50:06;;;;;;;2.78;1.67;;;8.30;99.90;;;;;;5008629;28;20068;-60
2022/12/29 04:52:32;;;;;;;2.03;1.40;;;8.30;99.90;;;;;;5007888;28;20048;-59
2022/12/29 04:54:58;;;;;;;1.80;1.30;;;8.30;99.90;;;;;;5008035;28;20034;-58
2022/12/29 04:57:23;;;;;;;2.72;1.48;;;8.40;99.90;;;;;;5007983;28;20037;-59
2022/12/29 04:59:49;;;;;;;2.28;1.38;;;8.30;99.90;;;;;;5008934;28;20034;-60
2022/12/29 05:02:15;;;;;;;3.67;1.80;;;8.30;99.90;;;;;;5007032;28;20088;-59
2022/12/29 05:04:41;;;;;;;2.90;1.58;;;8.20;99.90;;;;;;5008311;28;20105;-59
2022/12/29 05:07:07;;;;;;;1.40;1.25;;;8.20;99.90;;;;;;5006715;28;20148;-60
2022/12/29 05:09:32;;;;;;;1.70;1.20;;;8.20;99.90;;;;;;5008734;28;20025;-59
2022/12/29 05:11:58;;;;;;;3.63;0.93;;;8.10;99.90;;;;;;5008658;28;20048;-59
2022/12/29 05:14:24;;;;;;;3.47;1.52;;;8.10;99.90;;;;;;5008005;28;20026;-60
2022/12/29 05:16:49;;;;;;;3.05;1.38;;;8.20;99.90;;;;;;5007791;28;20030;-59
2022/12/29 05:19:16;;;;;;;2.83;1.33;;;8.10;99.90;;;;;;5007610;28;20030;-60
2022/12/29 05:21:42;;;;;;;10.23;1.80;;;8.20;99.90;;;;;;5007889;28;20433;-60
2022/12/29 05:24:07;;;;;;;5.68;1.85;;;8.30;99.90;;;;;;5007962;28;20033;-59
2022/12/29 05:26:33;;;;;;;4.05;1.17;;;8.30;99.90;;;;;;5007688;28;20036;-61
2022/12/29 05:28:59;;;;;;;1.92;1.35;;;8.30;99.90;;;;;;5008636;28;20042;-60
2022/12/29 05:31:26;;;;;;;1.85;1.30;;;8.20;99.90;;;;;;5005795;28;20030;-60
2022/12/29 05:33:51;;;;;;;1.70;1.13;;;8.20;99.90;;;;;;5007519;28;20029;-60
2022/12/29 05:36:17;;;;;;;2.72;1.42;;;8.10;99.90;;;;;;5007213;28;20108;-59
2022/12/29 05:38:43;;;;;;;2.13;1.15;;;8.10;99.90;;;;;;5007270;28;20042;-59
2022/12/29 05:41:08;;;;;;;2.25;1.27;;;8.00;99.90;;;;;;5009225;28;20107;-59
2022/12/29 05:43:34;;;;;;;1.70;1.20;;;8.00;99.90;;;;;;5007661;28;20042;-60
2022/12/29 05:46:00;;;;;;;4.25;1.85;;;7.90;99.90;;;;;;5008448;28;20033;-60
2022/12/29 05:48:25;;;;;;;1.35;1.20;;;7.90;99.90;;;;;;5008183;28;20126;-61
2022/12/29 05:50:51;;;;;;;3.63;1.30;;;7.90;99.90;;;;;;5007704;28;20491;-60
2022/12/29 05:53:17;;;;;;;3.65;1.48;;;7.80;99.90;;;;;;5006318;28;20088;-59
2022/12/29 05:55:44;;;;;;;2.35;1.15;;;7.80;99.90;;;;;;5008080;28;20089;-60
2022/12/29 05:58:10;;;;;;;3.30;1.30;;;7.70;99.90;;;;;;5008216;28;20029;-60
2022/12/29 06:00:35;;;;;;;2.05;1.23;;;7.50;99.90;;;;;;5007548;28;20025;-60
2022/12/29 06:03:01;;;;;;;4.97;1.40;;;7.30;99.90;;;;;;5008001;28;20500;-60
2022/12/29 06:05:27;;;;;;;3.53;1.73;;;7.20;99.90;;;;;;5006664;28;20490;-60
2022/12/29 06:07:52;;;;;;;7.50;1.40;;;7.10;99.90;;;;;;5008317;28;20104;-59
2022/12/29 06:10:18;;;;;;;2.90;1.60;;;7.20;99.90;;;;;;5007806;28;20029;-60
2022/12/29 06:12:44;;;;;;;1.90;1.20;;;7.20;99.90;;;;;;4992449;28;20022;-60
2022/12/29 06:15:10;;;;;;;3.15;1.40;;;7.30;99.90;;;;;;5012011;28;20026;-60
2022/12/29 06:17:35;;;;;;;3.53;1.35;;;7.30;99.90;;;;;;5006552;28;20034;-59
2022/12/29 06:20:02;;;;;;;4.10;1.50;;;7.40;99.90;;;;;;4975692;28;20138;-60
2022/12/29 06:22:28;;;;;;;3.20;1.80;;;7.40;99.90;;;;;;5006121;28;20026;-60
2022/12/29 06:24:54;;;;;;;4.63;2.88;;;7.50;99.90;;;;;;4998151;28;20447;-59
2022/12/29 06:27:19;;;;;;;3.30;3.00;;;7.40;99.90;;;;;;5006221;28;20056;-58
2022/12/29 06:29:46;;;;;;;4.30;1.90;;;7.40;99.90;;;;;;5007096;28;20030;-59
2022/12/29 06:32:11;;;;;;;1.48;1.27;;;7.40;99.90;;;;;;5007595;28;20037;-59
2022/12/29 06:34:37;;;;;;;2.30;1.30;;;7.30;99.90;;;;;;5007008;28;20026;-60
2022/12/29 06:37:03;;;;;;;2.65;1.20;;;7.30;99.90;;;;;;5007314;28;20054;-59
2022/12/29 06:39:29;;;;;;;2.95;1.42;;;7.30;99.90;;;;;;5008476;28;20437;-58
2022/12/29 06:41:54;;;;;;;2.60;1.58;;;7.30;99.90;;;;;;5008192;28;20037;-58
2022/12/29 06:44:21;;;;;;;2.90;1.42;;;7.20;99.90;;;;;;5007591;28;20106;-59
2022/12/29 06:46:48;;;;;;;4.88;1.70;;;7.20;99.90;;;;;;5005714;28;20457;-59
2022/12/29 06:49:14;;;;;;;2.72;1.60;;;7.20;99.90;;;;;;5008171;28;20442;-58
2022/12/29 06:51:39;;;;;;;1.52;1.42;;;7.30;99.90;;;;;;5007745;28;20041;-59
2022/12/29 06:54:06;;;;;;;4.57;1.40;;;7.30;99.90;;;;;;5006621;28;20041;-59
2022/12/29 06:56:31;;;;;;;2.63;1.95;;;7.30;99.90;;;;;;5005838;28;20100;-59
2022/12/29 06:58:59;;;;;;;4.00;1.58;;;7.20;99.90;;;;;;5006905;28;20534;-58
2022/12/29 07:01:25;;;;;;;1.75;1.20;;;7.20;99.90;;;;;;5007115;28;20030;-59
2022/12/29 07:03:51;;;;;;;1.75;1.20;;;7.20;99.90;;;;;;5007312;28;20170;-59
2022/12/29 07:06:16;;;;;;;1.85;1.40;;;7.20;99.90;;;;;;5006211;28;20029;-58
2022/12/29 07:08:42;;;;;;;2.47;1.67;;;7.30;99.90;;;;;;5008234;28;20062;-59
2022/12/29 07:11:08;;;;;;;3.03;1.50;;;7.30;99.90;;;;;;5010256;28;20032;-59
2022/12/29 07:13:34;;;;;;;1.02;0.90;;;7.40;99.90;;;;;;5007182;28;20384;-58
2022/12/29 07:16:04;;;;;;;3.35;1.20;;;7.50;99.90;;;;;;5009412;28;20036;-58
2022/12/29 07:18:30;;;;;;;2.85;1.55;;;7.50;99.90;;;;;;5011226;28;20038;-58
2022/12/29 07:20:55;;;;;;;2.90;1.10;;;7.70;99.90;;;;;;5009857;28;20848;-61
2022/12/29 07:23:21;;;;;;;1.40;1.10;;;7.80;99.90;;;;;;5010126;28;20034;-60
2022/12/29 07:25:47;;;;;;;2.75;1.42;;;7.90;99.90;;;;;;5011216;28;20052;-62
2022/12/29 07:28:12;;;;;;;2.20;1.17;;;7.90;99.90;;;;;;5010090;28;20022;-60
2022/12/29 07:30:38;;;;;;;1.45;1.15;;;7.90;99.90;;;;;;5009755;28;20026;-61
2022/12/29 07:33:04;;;;;;;1.83;1.10;;;8.00;99.90;;;;;;5012079;28;20032;-60
2022/12/29 07:35:30;;;;;;;2.45;1.20;;;7.90;99.90;;;;;;5010154;28;20026;-61
2022/12/29 07:37:55;;;;;;;2.03;1.08;;;8.00;99.90;;;;;;5009168;28;20648;-61
2022/12/29 07:40:21;;;;;;;1.63;1.00;;;8.10;99.90;;;;;;5008390;28;20408;-60
2022/12/29 07:42:47;;;;;;;1.73;1.33;;;8.30;99.90;;;;;;5011411;28;20105;-58
2022/12/29 07:45:12;;;;;;;2.75;1.13;;;8.20;99.90;;;;;;5007278;28;20045;-59
2022/12/29 07:47:38;;;;;;;1.20;1.05;;;8.20;99.90;;;;;;5006792;28;20129;-59
2022/12/29 07:50:05;;;;;;;1.75;0.95;;;8.10;99.90;;;;;;5008918;28;20430;-61
2022/12/29 07:52:30;;;;;;;1.73;1.10;;;8.10;99.90;;;;;;5009270;28;20141;-59
2022/12/29 07:54:56;;;;;;;2.05;1.20;;;8.10;99.90;;;;;;5010446;28;20394;-60
2022/12/29 07:57:21;;;;;;;3.08;1.17;;;8.00;99.90;;;;;;5008421;28;20032;-58
2022/12/29 07:59:47;;;;;;;1.52;0.90;;;8.10;99.90;;;;;;5005213;28;20064;-59
2022/12/29 08:02:13;;;;;;;2.20;0.98;;;8.10;99.90;;;;;;5009082;28;20113;-58
2022/12/29 08:04:38;;;;;;;2.83;1.20;;;8.20;99.90;;;;;;5006305;28;20321;-62
2022/12/29 08:07:04;;;;;;;2.70;1.15;;;8.30;99.90;;;;;;5012378;28;20072;-62
2022/12/29 08:09:30;;;;;;;2.92;1.10;;;8.50;99.90;;;;;;4991452;28;20022;-62
2022/12/29 08:11:55;;;;;;;2.72;1.10;;;8.60;99.90;;;;;;5009833;28;20053;-61
2022/12/29 08:14:21;;;;;;;1.05;0.90;;;8.70;99.90;;;;;;5007333;28;20088;-61
2022/12/29 08:16:46;;;;;;;2.95;1.10;;;8.80;99.90;;;;;;5007912;28;20036;-61
2022/12/29 08:19:13;;;;;;;1.17;0.90;;;8.90;99.90;;;;;;5009726;28;20101;-62
2022/12/29 08:21:39;;;;;;;2.25;1.20;;;8.90;99.90;;;;;;5006888;28;20026;-61
2022/12/29 08:24:05;;;;;;;1.83;1.00;;;8.90;99.90;;;;;;5008451;28;20079;-61
2022/12/29 08:26:31;;;;;;;9.20;1.40;;;8.90;99.90;;;;;;5004778;28;20125;-61
2022/12/29 08:28:57;;;;;;;1.55;0.90;;;8.90;99.90;;;;;;5005624;28;20042;-60
2022/12/29 08:31:23;;;;;;;4.10;1.20;;;8.90;99.90;;;;;;5007248;28;20018;-60
2022/12/29 08:33:49;;;;;;;1.38;0.98;;;8.90;99.90;;;;;;5007568;28;20049;-61
2022/12/29 08:36:15;;;;;;;2.92;1.20;;;9.00;99.90;;;;;;5009108;28;20537;-61
2022/12/29 08:38:40;;;;;;;7.68;1.25;;;8.90;99.90;;;;;;5005462;28;20049;-58
2022/12/29 08:41:06;;;;;;;3.45;1.00;;;8.90;99.90;;;;;;5009204;28;20608;-61
2022/12/29 08:43:32;;;;;;;1.40;0.90;;;8.90;99.90;;;;;;5008878;28;20767;-61
2022/12/29 08:45:58;;;;;;;1.48;1.00;;;8.90;99.90;;;;;;5009220;28;20057;-61
2022/12/29 08:48:25;;;;;;;1.42;1.05;;;9.00;99.90;;;;;;5008903;28;20042;-60
2022/12/29 08:50:51;;;;;;;2.22;1.20;;;9.00;99.90;;;;;;5006376;28;20026;-59
2022/12/29 08:53:17;;;;;;;2.53;1.13;;;9.00;99.90;;;;;;5008715;28;20408;-59
2022/12/29 08:55:54;;;;;;;2.88;1.02;;;9.00;99.90;;;;;;5009394;28;20076;-61
2022/12/29 08:58:20;;;;;;;1.55;1.33;;;9.10;99.90;;;;;;5007639;28;20514;-59
2022/12/29 09:00:45;;;;;;;4.13;1.30;;;9.10;99.90;;;;;;5007084;28;20033;-60
2022/12/29 09:03:11;;;;;;;3.13;1.20;;;9.10;99.90;;;;;;5010389;28;20025;-60
2022/12/29 09:05:37;;;;;;;2.67;1.25;;;9.10;99.90;;;;;;5005538;28;20501;-59
2022/12/29 09:08:03;;;;;;;1.40;1.05;;;9.10;99.90;;;;;;4974597;28;20529;-59
2022/12/29 09:10:28;;;;;;;4.53;2.40;;;9.20;99.90;;;;;;5006818;28;20145;-58
2022/12/29 09:12:54;;;;;;;2.28;1.30;;;9.30;99.90;;;;;;5009086;28;20073;-58
2022/12/29 09:15:20;;;;;;;2.58;1.30;;;9.40;99.90;;;;;;4997528;28;20029;-58
2022/12/29 09:17:45;;;;;;;2.38;1.42;;;9.50;99.90;;;;;;5008918;28;20084;-58
2022/12/29 09:20:17;;;;;;;1.52;1.20;;;9.50;99.90;;;;;;5006215;28;20040;-58
2022/12/29 09:22:43;;;;;;;1.48;1.10;;;9.50;99.90;;;;;;5006003;28;20118;-58
2022/12/29 09:25:10;;;;;;;2.90;1.00;;;9.50;99.90;;;;;;5004861;28;20080;-58
2022/12/29 09:27:36;;;;;;;2.10;1.10;;;9.60;99.90;;;;;;5007505;28;20022;-58
2022/12/29 09:30:08;;;;;;;1.23;1.08;;;9.70;99.90;;;;;;5007519;28;20037;-59
2022/12/29 09:32:34;;;;;;;2.42;1.10;;;9.70;99.90;;;;;;5007104;28;20033;-58
2022/12/29 09:35:00;;;;;;;1.90;1.15;;;9.70;99.90;;;;;;5007852;28;20041;-61
2022/12/29 09:37:26;;;;;;;1.77;1.13;;;9.60;99.90;;;;;;5005687;28;20843;-58
2022/12/29 09:39:52;;;;;;;1.63;1.52;;;9.60;99.90;;;;;;5009214;28;20036;-60
2022/12/29 09:42:34;;;;;;;5.22;1.33;;;9.50;99.90;;;;;;5008328;28;20034;-58
2022/12/29 09:45:06;;;;;;;2.70;1.30;;;9.50;99.90;;;;;;5004840;28;20042;-59
2022/12/29 09:47:32;;;;;;;1.92;1.25;;;9.50;99.90;;;;;;5008114;28;20398;-59
2022/12/29 09:50:09;;;;;;;2.85;1.40;;;9.60;99.90;;;;;;5007301;28;20053;-59
2022/12/29 09:52:42;;;;;;;3.38;1.20;;;9.60;99.90;;;;;;5005385;28;20044;-59
2022/12/29 09:55:15;;;;;;;2.22;1.25;;;9.70;99.90;;;;;;5004916;28;20652;-62
2022/12/29 09:57:54;;;;;;;2.38;1.20;;;9.70;99.90;;;;;;5008067;28;20437;-62
2022/12/29 10:00:26;;;;;;;4.28;1.25;;;9.70;99.90;;;;;;5007256;28;20141;-62
2022/12/29 10:02:58;;;;;;;4.88;2.08;;;9.70;99.90;;;;;;5005980;28;20033;-59
2022/12/29 10:05:24;;;;;;;3.08;1.95;;;9.80;99.90;;;;;;5005252;28;20026;-60
2022/12/29 10:08:14;;;;;;;2.90;1.52;;;9.70;99.90;;;;;;5007134;28;20038;-59
2022/12/29 10:10:56;;;;;;;1.47;1.20;;;9.70;99.90;;;;;;5006933;28;20042;-58
2022/12/29 10:13:58;;;;;;;2.30;1.13;;;9.70;99.90;;;;;;5006254;28;20275;-60
2022/12/29 10:16:45;;;;;;;2.80;1.63;;;9.70;99.90;;;;;;5003273;28;20049;-61
2022/12/29 10:19:44;;;;;;;1.70;1.00;;;9.70;99.90;;;;;;5003528;28;20076;-59
2022/12/29 10:22:10;;;;;;;1.70;1.27;;;9.80;99.90;;;;;;5004589;28;20018;-61
2022/12/29 10:24:38;;;;;;;3.80;1.20;;;9.80;99.90;;;;;;5006531;28;20606;-58
2022/12/29 10:27:10;;;;;;;3.13;1.58;;;9.70;99.90;;;;;;5006403;28;20825;-59
2022/12/29 10:29:48;;;;;;;3.45;1.20;;;9.60;99.90;;;;;;5007338;28;20061;-59
2022/12/29 10:32:30;;;;;;;1.88;1.05;;;9.70;99.90;;;;;;5007463;28;20045;-61
2022/12/29 10:35:04;;;;;;;1.77;1.00;;;9.70;99.90;;;;;;5006902;28;20034;-59
2022/12/29 10:37:59;;;;;;;1.38;1.15;;;9.80;99.90;;;;;;5007098;28;20042;-58
2022/12/29 10:40:42;;;;;;;2.70;1.10;;;9.90;99.90;;;;;;5005351;28;20034;-58
2022/12/29 10:43:33;;;;;;;2.05;1.20;;;10.10;99.90;;;;;;5007613;28;20033;-58
2022/12/29 10:46:04;;;;;;;1.58;1.13;;;10.20;99.90;;;;;;5006103;28;20517;-59
2022/12/29 10:48:35;;;;;;;1.23;1.00;;;10.40;99.90;;;;;;5007925;28;20038;-58
2022/12/29 10:51:06;;;;;;;1.88;1.20;;;10.40;99.90;;;;;;5014219;28;20034;-59
2022/12/29 10:53:40;;;;;;;;;;;10.50;99.90;;;;;;5011671;28;20037;-59
2022/12/29 10:56:19;;;;;;;2.40;1.25;;;10.50;99.90;;;;;;5010471;28;19913;-58
2022/12/29 10:58:47;;;;;;;2.13;1.10;;;10.60;99.90;;;;;;5010257;28;20034;-58
2022/12/29 11:01:13;;;;;;;3.92;1.60;;;10.60;99.90;;;;;;5010655;28;20021;-58
2022/12/29 11:03:52;;;;;;;2.08;1.20;;;10.60;99.90;;;;;;5010024;28;20436;-58
2022/12/29 11:06:26;;;;;;;2.35;1.58;;;10.70;99.90;;;;;;5010478;28;20071;-58
2022/12/29 11:09:15;;;;;;;2.35;0.90;;;10.80;99.90;;;;;;5008652;28;20831;-59
2022/12/29 11:11:41;;;;;;;2.47;1.33;;;10.90;99.90;;;;;;5009085;28;20506;-59
2022/12/29 11:14:32;;;;;;;2.17;1.15;;;10.80;99.90;;;;;;5009456;28;20030;-59
2022/12/29 11:16:59;;;;;;;3.47;1.20;;;10.80;99.90;;;;;;5006575;28;20058;-59
2022/12/29 11:19:31;;;;;;;2.72;1.42;;;10.80;99.90;;;;;;5008634;28;20022;-59
2022/12/29 11:22:14;;;;;;;2.40;1.10;;;10.70;99.90;;;;;;5010797;28;20108;-59
2022/12/29 11:24:45;;;;;;;2.45;1.10;;;10.60;99.90;;;;;;5009933;28;20563;-57
2022/12/29 11:27:32;;;;;;;5.40;1.50;;;10.60;99.90;;;;;;5009497;28;20109;-58
2022/12/29 11:29:58;;;;;;;3.00;1.30;;;10.50;99.90;;;;;;5009003;28;21160;-57
2022/12/29 11:32:26;;;;;;;2.45;1.10;;;10.50;99.90;;;;;;5009775;28;20030;-59
2022/12/29 11:34:52;;;;;;;1.50;1.00;;;10.50;99.90;;;;;;5008312;28;20038;-56
2022/12/29 11:37:38;;;;;;;2.72;1.20;;;10.50;99.90;;;;;;5009274;28;20026;-58
2022/12/29 11:40:15;;;;;;;0.80;0.80;;;10.50;99.90;;;;;;5009275;28;20422;-58
2022/12/29 11:42:50;;;;;;;2.75;1.10;;;10.60;99.90;;;;;;5009311;28;20014;-58
2022/12/29 11:45:19;;;;;;;2.70;1.33;;;10.70;99.90;;;;;;5010274;28;20034;-59
2022/12/29 11:47:48;;;;;;;1.55;1.00;;;10.70;99.90;;;;;;5010629;28;20026;-58
2022/12/29 11:50:26;;;;;;;1.40;1.10;;;10.80;99.90;;;;;;5010105;28;20122;-59
2022/12/29 11:53:03;;;;;;;3.17;1.20;;;10.90;99.90;;;;;;5009581;28;20042;-59
2022/12/29 11:55:30;;;;;;;2.58;1.00;;;10.90;99.90;;;;;;5007729;28;20081;-59
2022/12/29 11:58:01;;;;;;;1.20;1.00;;;11.00;99.90;;;;;;5010383;28;20513;-58
2022/12/29 12:00:29;;;;;;;1.65;1.13;;;11.20;99.90;;;;;;5007940;28;20026;-58
2022/12/29 12:03:16;;;;;;;2.67;1.20;;;11.50;99.90;;;;;;5008684;28;20025;-58
2022/12/29 12:05:52;;;;;;;3.03;1.30;;;11.70;99.90;;;;;;4998249;28;20509;-59
2022/12/29 12:09:07;;;;;;;2.30;1.42;;;11.80;99.90;;;;;;5010147;28;20544;-58
2022/12/29 12:11:37;;;;;;;2.05;1.23;;;11.90;99.90;;;;;;4945984;28;20032;-59
2022/12/29 12:14:16;;;;;;;2.73;1.30;;;11.80;99.90;;;;;;4952082;28;20024;-59
2022/12/29 12:16:50;;;;;;;1.85;1.20;;;11.70;99.90;;;;;;4984913;28;20334;-59
2022/12/29 12:19:36;;;;;;;1.70;0.90;;;11.50;99.90;;;;;;5009658;28;20556;-58
2022/12/29 12:22:21;;;;;;;1.73;1.10;;;11.40;99.90;;;;;;5008966;28;20053;-59
2022/12/29 12:25:01;;;;;;;1.45;1.00;;;11.20;99.90;;;;;;5007974;28;20073;-58
2022/12/29 12:27:39;;;;;;;1.48;1.17;;;11.10;99.90;;;;;;5009073;28;20042;-59
2022/12/29 12:30:15;;;;;;;2.20;1.38;;;11.00;99.90;;;;;;5008953;28;20470;-60
2022/12/29 12:33:28;;;;;;;3.63;1.00;;;11.00;99.90;;;;;;5009969;28;20022;-58
2022/12/29 12:36:21;;;;;;;3.08;1.25;;;10.90;99.90;;;;;;4985458;28;20057;-59
2022/12/29 12:39:21;;;;;;;3.78;1.60;;;10.90;99.90;;;;;;5008355;28;20557;-59
2022/12/29 12:42:31;;;;;;;1.38;1.08;;;10.90;99.90;;;;;;5008602;28;20398;-60
2022/12/29 12:45:05;;;;;;;2.45;1.40;;;10.90;99.90;;;;;;4958304;28;20054;-58
2022/12/29 12:47:49;;;;;;;2.50;1.80;;;11.00;99.90;;;;;;5000971;28;20502;-58
2022/12/29 12:50:35;;;;;;;2.45;1.10;;;10.90;99.90;;;;;;5008498;28;20437;-59
2022/12/29 12:53:12;;;;;;;2.72;1.42;;;10.90;99.90;;;;;;5008090;28;20711;-58
2022/12/29 12:56:15;;;;;;;1.25;0.93;;;11.00;99.90;;;;;;5007961;28;20045;-59
2022/12/29 12:59:09;;;;;;;1.67;1.20;;;10.90;99.90;;;;;;5008772;28;20057;-59
2022/12/29 13:02:00;;;;;;;3.50;1.30;;;11.00;99.90;;;;;;5008820;28;20076;-58
2022/12/29 13:04:41;;;;;;;2.10;1.10;;;10.90;99.90;;;;;;5008151;28;20485;-57
2022/12/29 13:07:28;;;;;;;1.08;0.98;;;11.00;99.90;;;;;;5009078;28;20041;-58
2022/12/29 13:10:15;;;;;;;3.42;1.10;;;11.00;99.90;;;;;;5008813;28;20466;-58
2022/12/29 13:13:19;;;;;;;2.03;1.30;;;10.90;99.90;;;;;;5008533;28;20460;-57
2022/12/29 13:15:57;;;;;;;2.42;1.10;;;10.80;99.90;;;;;;4984614;28;20034;-57
2022/12/29 13:18:37;;;;;;;1.40;1.20;;;10.80;99.90;;;;;;5008478;28;20034;-58
2022/12/29 13:21:16;;;;;;;1.85;1.20;;;10.80;99.90;;;;;;5008105;28;20125;-58
2022/12/29 13:23:55;;;;;;;1.55;1.08;;;10.80;99.90;;;;;;5008427;28;20121;-59
2022/12/29 13:26:42;;;;;;;2.80;1.70;;;10.80;99.90;;;;;;5008997;28;20585;-58
2022/12/29 13:29:44;;;;;;;2.95;1.50;;;10.80;99.90;;;;;;5008521;28;20591;-58
2022/12/29 13:32:28;;;;;;;1.67;1.33;;;10.70;99.90;;;;;;5005451;28;20506;-58
2022/12/29 13:35:10;;;;;;;2.33;1.25;;;10.70;99.90;;;;;;5007384;28;20105;-58
2022/12/29 13:37:52;;;;;;;2.33;1.33;;;10.70;99.90;;;;;;5008034;28;20037;-59
2022/12/29 13:40:23;;;;;;;3.08;1.10;;;10.80;99.90;;;;;;5007777;28;20435;-57
2022/12/29 13:42:49;;;;;;;;;;;10.80;99.90;;;;;;5009795;28;20026;-57
2022/12/29 13:45:22;;;;;;;1.95;1.17;;;10.80;99.90;;;;;;5008235;28;20392;-58
2022/12/29 13:47:57;;;;;;;1.35;1.02;;;10.90;99.90;;;;;;5007126;28;20033;-59
2022/12/29 13:50:27;;;;;;;1.83;0.90;;;10.90;99.90;;;;;;5007494;28;20502;-57
2022/12/29 13:53:14;;;;;;;2.35;1.40;;;10.80;99.90;;;;;;5007764;28;20034;-58
2022/12/29 13:55:53;;;;;;;2.25;0.98;;;10.80;99.90;;;;;;5008209;28;20548;-59
2022/12/29 13:58:25;;;;;;;2.42;1.60;;;10.80;99.90;;;;;;5008265;28;20072;-58
2022/12/29 14:00:57;;;;;;;3.40;1.23;;;10.80;99.90;;;;;;5007211;28;20050;-57